Antovo, Croatia

16:32 CET dnia 25-marzec-2017 (GMT +0100)
Ruzic selo | | Change Station

Wysokość 1175 ft 45.28 °N, 14.61 °E | Updated 13 seconds ago

pogodnie
pogodnie
68.2 ° F
Odczuwalna 68.2 ° F
Płn.
2.3
Wiatr zmienny Wiatr od PdPdZd
Gusts 2.3 mph

Dziś
Wysoka -- | Niska -- ° F
--% Prawdop. opadów
Wczoraj
Wysoka -- | Niska -- ° F
Precip. -- cali
Ciśnienie 30.06 cali
Widzialność 6.2 mil
chmury Niewiele 4700 ft
Punkt rosy 42 ° F
Wilgotność 38%
Opady deszczu 0.00 cali
grubość pokrywy śnieżnej Niedostępne.
5:54 AM 6:20 PM
Zmniejszający się sierp Księżyca, 8% visible
METAR LDRI 251530Z 32005KT 290V360 9999 FEW047 20/03 Q1018
Ciśnienie 30.06 cali
Widzialność 6.2 mil
chmury Niewiele 4700 ft
Punkt rosy 42 ° F
Wilgotność 38%
Opady deszczu 0.00 cali
grubość pokrywy śnieżnej Niedostępne.
5:54 AM 6:20 PM
Zmniejszający się sierp Księżyca, 8% visible
METAR LDRI 251530Z 32005KT 290V360 9999 FEW047 20/03 Q1018

Get Severe Weather Alerts

Thanks for signing up!

Be on the lookout for a verification email in your inbox.

You'll start receiving the daily forecast at 8 AM.

×

10-Day Weather Forecast

×

Almanac

Astronomia

Mar. 25, 2017 Wschód Zachów
Aktualny czas
Zmierzch cywilny
Zmierzch żeglarski
świt/zmierzch astronomiczny
Księżyc
całkowite oświetlenie
Długość dnia
Tomorrow will be .
, % of the Moon is Illuminated

Dzisiejsze ekstrema

Country Highs Country Lows

Community

WunderPhotos

Upload Photos

1,962,540 zdjęcia zostały przesłane!

WunderBlog® & News

Nearby

Jakość powietrza

  Jakość powietrza czynnik AQ Zanieczyszczenie
Not available.

Głębokość pokrywy śnieżnej

Station Depth n.p.m.

Aktywność sejsmiczna

Miejscowość Distance Mag. Time & Date
Minimum magnitude displayed is 2.5.

Aktywność sejsmiczna

Miejscowość Distance Mag. Time & Date
Minimum magnitude displayed is 2.5.

Temperatury wody na wybrzeżu

Miejsce Temperatura

Stations

Najbliższa stacja pogodowa

Lokalizacja stacji Temp. czynnik chłodzący wiatru Punkt rosy Wilgotność Wiatr Precip. Wysokość Uaktualniono Typ